Time;durP1;ratioP1;P1;durP2;ratioP2;P2;SDS_P1;SDS_P2;PMS_P1;PMS_P2;Temp;Humidity;BMP_temperature;BMP_pressure;BME280_temperature;BME280_humidity;BME280_pressure;Samples;Min_cycle;Max_cycle;Signal;HPM_P1;HPM_P2
2023/10/05 00:02:24;;;;;;;6.43;6.13;;;13.50;99.90;;;;;;4930743;29;20446;-81
2023/10/05 00:04:52;;;;;;;7.00;6.60;;;13.50;99.90;;;;;;4929096;29;20465;-82
2023/10/05 00:07:26;;;;;;;6.17;5.97;;;13.50;99.90;;;;;;4926379;29;20485;-80
2023/10/05 00:09:57;;;;;;;7.00;6.60;;;13.50;99.90;;;;;;4927058;29;20465;-82
2023/10/05 00:12:27;;;;;;;6.43;6.17;;;13.40;99.90;;;;;;4927546;29;20529;-83
2023/10/05 00:15:08;;;;;;;7.37;6.87;;;13.40;99.90;;;;;;4926559;29;20461;-80
2023/10/05 00:17:36;;;;;;;6.90;6.60;;;13.40;99.90;;;;;;4924994;29;20493;-82
2023/10/05 00:20:10;;;;;;;6.60;6.30;;;13.40;99.90;;;;;;4925198;29;21737;-81
2023/10/05 00:22:42;;;;;;;6.60;6.20;;;13.40;99.90;;;;;;4925329;29;20458;-82
2023/10/05 00:25:11;;;;;;;6.80;6.10;;;13.40;99.90;;;;;;4927526;29;20493;-84
2023/10/05 00:27:40;;;;;;;6.87;6.27;;;13.40;99.90;;;;;;4926801;29;20714;-81
2023/10/05 00:30:12;;;;;;;6.23;6.03;;;13.40;99.90;;;;;;4922306;29;20465;-82
2023/10/05 00:32:46;;;;;;;6.60;6.30;;;13.40;99.90;;;;;;4928357;29;20485;-83
2023/10/05 00:35:20;;;;;;;6.63;6.40;;;13.30;99.90;;;;;;4926614;29;20457;-79
2023/10/05 00:37:50;;;;;;;6.50;6.20;;;13.30;99.90;;;;;;4926074;29;20487;-81
2023/10/05 00:40:34;;;;;;;6.10;5.80;;;13.30;99.90;;;;;;4927392;29;20586;-80
2023/10/05 00:43:06;;;;;;;6.47;5.97;;;13.30;99.90;;;;;;4925593;29;20445;-81
2023/10/05 00:45:38;;;;;;;6.63;6.30;;;13.30;99.90;;;;;;4932304;29;20465;-82
2023/10/05 00:48:13;;;;;;;6.30;6.10;;;13.30;99.90;;;;;;4933442;29;20485;-81
2023/10/05 00:50:46;;;;;;;7.10;6.70;;;13.30;99.90;;;;;;4934978;29;20473;-81
2023/10/05 00:56:18;;;;;;;6.60;6.30;;;13.20;99.90;;;;;;4913075;29;20489;-80
2023/10/05 00:58:48;;;;;;;6.07;5.87;;;13.30;99.90;;;;;;4927491;29;20977;-81
2023/10/05 01:01:22;;;;;;;6.63;6.33;;;13.30;99.90;;;;;;4932102;29;20465;-82
2023/10/05 01:04:18;;;;;;;7.13;6.70;;;13.20;99.90;;;;;;4931505;29;21133;-83
2023/10/05 01:06:54;;;;;;;5.97;5.77;;;13.20;99.90;;;;;;4931687;29;20232;-83
2023/10/05 01:09:55;;;;;;;6.17;5.97;;;13.20;99.90;;;;;;4930176;29;20560;-85
2023/10/05 01:12:36;;;;;;;6.87;6.50;;;13.10;99.90;;;;;;4932015;29;20881;-83
2023/10/05 01:15:06;;;;;;;6.90;6.50;;;13.10;99.90;;;;;;4932532;29;20461;-84
2023/10/05 01:17:36;;;;;;;6.93;6.53;;;13.20;99.90;;;;;;4926415;29;20551;-82
2023/10/05 01:20:11;;;;;;;6.53;6.17;;;13.10;99.90;;;;;;4934337;29;20457;-82
2023/10/05 01:22:40;;;;;;;6.80;6.50;;;13.10;99.90;;;;;;4928063;29;20464;-82
2023/10/05 01:25:13;;;;;;;6.17;5.90;;;13.20;99.90;;;;;;4931557;29;20457;-82
2023/10/05 01:27:44;;;;;;;6.30;6.10;;;13.20;99.90;;;;;;4929183;29;20508;-82
2023/10/05 01:30:13;;;;;;;6.83;6.53;;;13.20;99.90;;;;;;4934465;29;20514;-83
2023/10/05 01:32:42;;;;;;;6.60;6.30;;;13.20;99.90;;;;;;4930691;29;21154;-83
2023/10/05 01:35:12;;;;;;;6.33;6.03;;;13.10;99.90;;;;;;4931057;29;20453;-81
2023/10/05 01:37:41;;;;;;;6.57;6.27;;;13.10;99.90;;;;;;4930488;29;20532;-86
2023/10/05 01:40:20;;;;;;;6.43;6.13;;;13.10;99.90;;;;;;4933230;29;20467;-82
2023/10/05 01:42:51;;;;;;;6.23;5.90;;;13.10;99.90;;;;;;4929832;29;20468;-83
2023/10/05 01:45:24;;;;;;;6.60;6.20;;;13.10;99.90;;;;;;4933817;29;20462;-82
2023/10/05 01:47:54;;;;;;;6.43;6.13;;;13.00;99.90;;;;;;4930742;29;20484;-82
2023/10/05 01:50:23;;;;;;;6.33;6.13;;;13.00;99.90;;;;;;4931469;29;20489;-83
2023/10/05 01:52:57;;;;;;;6.27;6.00;;;13.00;99.90;;;;;;4932403;29;20454;-80
2023/10/05 01:55:27;;;;;;;6.70;6.40;;;12.80;99.90;;;;;;4931452;29;20450;-81
2023/10/05 01:57:56;;;;;;;6.27;5.97;;;12.80;99.90;;;;;;4927542;29;20477;-80
2023/10/05 02:00:25;;;;;;;6.10;5.70;;;12.80;99.90;;;;;;4927951;29;20520;-81
2023/10/05 02:02:55;;;;;;;6.07;5.87;;;12.70;99.90;;;;;;4930567;29;20971;-81
2023/10/05 02:05:24;;;;;;;5.70;5.50;;;12.70;99.90;;;;;;4930727;29;20473;-82
2023/10/05 02:07:53;;;;;;;6.80;6.50;;;12.80;99.90;;;;;;4930410;29;20480;-83
2023/10/05 02:10:21;;;;;;;6.17;5.97;;;12.90;99.90;;;;;;4932025;29;20536;-82
2023/10/05 02:12:54;;;;;;;6.67;6.37;;;12.90;99.90;;;;;;4929009;29;20449;-84
2023/10/05 02:15:28;;;;;;;6.43;6.13;;;12.90;99.90;;;;;;4927949;29;20505;-84
2023/10/05 02:18:02;;;;;;;6.80;6.50;;;12.80;99.90;;;;;;4928866;29;20490;-84
2023/10/05 02:20:45;;;;;;;6.87;6.47;;;12.80;99.90;;;;;;4932163;29;20456;-84
2023/10/05 02:26:04;;;;;;;6.43;6.23;;;12.80;99.90;;;;;;4925598;29;20469;-84
2023/10/05 02:28:38;;;;;;;6.30;6.10;;;12.80;99.90;;;;;;4931266;29;20497;-84
2023/10/05 02:31:08;;;;;;;6.83;6.53;;;12.80;99.90;;;;;;4930448;29;20497;-83
2023/10/05 02:33:39;;;;;;;6.67;6.23;;;12.80;99.90;;;;;;4930857;29;20993;-84
2023/10/05 02:36:17;;;;;;;6.47;6.27;;;12.80;99.90;;;;;;4928964;29;21250;-89
2023/10/05 02:38:54;;;;;;;6.70;6.30;;;12.70;99.90;;;;;;4934069;29;20864;-85
2023/10/05 02:41:37;;;;;;;6.37;6.07;;;12.70;99.90;;;;;;4933213;29;20460;-84
2023/10/05 02:44:17;;;;;;;6.23;5.83;;;12.70;99.90;;;;;;4930423;29;20461;-85
2023/10/05 02:46:47;;;;;;;6.30;6.00;;;12.70;99.90;;;;;;4947435;28;20487;-84
2023/10/05 02:49:16;;;;;;;6.30;6.00;;;12.70;99.90;;;;;;4929207;29;20988;-84
2023/10/05 02:51:46;;;;;;;6.67;6.27;;;12.70;99.90;;;;;;4931292;29;20529;-83
2023/10/05 02:54:14;;;;;;;7.00;6.50;;;12.60;99.90;;;;;;4929466;29;20551;-85
2023/10/05 02:56:43;;;;;;;6.63;6.33;;;12.60;99.90;;;;;;4931392;29;20477;-83
2023/10/05 02:59:15;;;;;;;6.33;6.03;;;12.60;99.90;;;;;;4932751;29;20452;-83
2023/10/05 03:01:43;;;;;;;6.50;6.30;;;12.50;99.90;;;;;;4930332;28;20461;-84
2023/10/05 03:04:21;;;;;;;6.50;6.20;;;12.60;99.90;;;;;;4926790;29;20488;-82
2023/10/05 03:06:52;;;;;;;5.67;5.47;;;12.70;99.90;;;;;;4930390;29;20481;-83
2023/10/05 03:09:24;;;;;;;6.00;5.80;;;12.70;99.90;;;;;;4947834;28;20482;-86
2023/10/05 03:11:52;;;;;;;6.30;6.00;;;12.70;99.90;;;;;;4932157;29;20458;-84
2023/10/05 03:14:22;;;;;;;6.40;6.20;;;12.70;99.90;;;;;;4929744;29;20512;-84
2023/10/05 03:16:56;;;;;;;6.23;6.03;;;12.80;99.90;;;;;;4929775;29;20933;-84
2023/10/05 03:19:26;;;;;;;7.00;6.70;;;12.70;99.90;;;;;;4930636;29;20457;-84
2023/10/05 03:21:58;;;;;;;6.57;6.27;;;12.70;99.90;;;;;;4926192;29;20553;-84
2023/10/05 03:24:28;;;;;;;7.13;6.73;;;12.70;99.90;;;;;;4929677;29;20458;-84
2023/10/05 03:26:56;;;;;;;6.50;6.13;;;12.70;99.90;;;;;;4929364;29;20469;-85
2023/10/05 03:29:26;;;;;;;6.50;6.30;;;12.70;99.90;;;;;;4931611;29;20488;-83
2023/10/05 03:32:01;;;;;;;6.90;6.60;;;12.70;99.90;;;;;;4926664;29;21050;-83
2023/10/05 03:34:31;;;;;;;7.27;6.80;;;12.70;99.90;;;;;;4932708;29;20460;-83
2023/10/05 03:37:03;;;;;;;7.10;6.80;;;12.80;99.90;;;;;;4928303;29;21007;-83
2023/10/05 03:39:40;;;;;;;6.57;6.33;;;12.80;99.90;;;;;;4934255;29;20456;-84
2023/10/05 03:42:12;;;;;;;7.07;6.77;;;12.70;99.90;;;;;;4931446;29;20519;-83
2023/10/05 03:44:43;;;;;;;6.93;6.50;;;12.80;99.90;;;;;;4929506;29;20473;-81
2023/10/05 03:47:12;;;;;;;6.83;6.30;;;12.70;99.90;;;;;;4929619;29;20488;-81
2023/10/05 03:49:56;;;;;;;7.10;6.80;;;12.70;99.90;;;;;;4929587;29;20476;-81
2023/10/05 03:52:29;;;;;;;6.30;6.10;;;12.70;99.90;;;;;;4927612;29;20465;-81
2023/10/05 03:55:01;;;;;;;6.33;6.13;;;12.70;99.90;;;;;;4928001;29;20456;-82
2023/10/05 03:57:31;;;;;;;6.85;6.55;;;12.70;99.90;;;;;;4922911;29;20959;-81
2023/10/05 04:00:15;;;;;;;6.97;6.37;;;12.20;99.90;;;;;;4924865;29;20202;-83
2023/10/05 04:02:44;;;;;;;6.17;5.97;;;12.50;99.90;;;;;;4929329;29;20464;-85
2023/10/05 04:05:14;;;;;;;6.07;5.87;;;12.70;99.90;;;;;;4930179;29;21045;-79
2023/10/05 04:07:43;;;;;;;6.00;5.80;;;12.70;99.90;;;;;;4930831;29;20589;-81
2023/10/05 04:10:15;;;;;;;7.30;6.90;;;12.80;99.90;;;;;;4930375;29;20484;-81
2023/10/05 04:12:43;;;;;;;6.90;6.60;;;12.70;99.90;;;;;;4928721;29;20962;-82
2023/10/05 04:15:17;;;;;;;6.60;6.30;;;12.80;99.90;;;;;;4928497;29;20458;-82
2023/10/05 04:18:11;;;;;;;6.80;6.60;;;12.70;99.90;;;;;;4930023;29;20577;-83
2023/10/05 04:20:43;;;;;;;6.80;6.50;;;12.70;99.90;;;;;;4925172;29;20930;-82
2023/10/05 04:23:15;;;;;;;6.50;6.33;;;12.70;99.90;;;;;;4930775;29;20459;-83
2023/10/05 04:25:44;;;;;;;6.53;6.33;;;12.70;99.90;;;;;;4927361;29;20465;-83
2023/10/05 04:28:13;;;;;;;7.17;6.87;;;12.70;99.90;;;;;;4927244;29;20466;-79
2023/10/05 04:30:46;;;;;;;7.40;6.90;;;12.70;99.90;;;;;;4925725;29;20835;-80
2023/10/05 04:33:14;;;;;;;7.20;6.80;;;12.60;99.90;;;;;;4927643;29;20445;-75
2023/10/05 04:35:45;;;;;;;7.63;7.23;;;12.60;99.90;;;;;;4923416;29;20464;-75
2023/10/05 04:38:13;;;;;;;7.67;7.17;;;12.50;99.90;;;;;;4927375;29;20500;-84
2023/10/05 04:40:41;;;;;;;6.77;6.47;;;12.50;99.90;;;;;;4942262;29;20449;-85
2023/10/05 04:43:11;;;;;;;7.53;7.10;;;12.70;99.90;;;;;;4941616;29;20453;-82
2023/10/05 04:45:42;;;;;;;7.30;7.00;;;12.70;99.90;;;;;;4939164;29;20457;-85
2023/10/05 04:48:13;;;;;;;6.87;6.60;;;12.70;99.90;;;;;;4939144;29;20476;-86
2023/10/05 04:50:41;;;;;;;6.80;6.60;;;12.80;99.90;;;;;;4940951;29;20540;-84
2023/10/05 04:53:11;;;;;;;6.40;6.20;;;12.90;99.90;;;;;;4939221;29;20469;-82
2023/10/05 04:55:42;;;;;;;7.10;6.80;;;12.90;99.90;;;;;;4936783;29;21834;-83
2023/10/05 04:58:24;;;;;;;7.40;7.10;;;12.80;99.90;;;;;;4934601;29;20485;-80
2023/10/05 05:01:15;;;;;;;6.97;6.67;;;12.80;99.90;;;;;;4937998;29;20464;-84
2023/10/05 05:03:56;;;;;;;7.10;6.70;;;12.80;99.90;;;;;;4934844;29;20530;-82
2023/10/05 05:06:27;;;;;;;6.77;6.57;;;12.80;99.90;;;;;;4931285;29;20493;-83
2023/10/05 05:08:55;;;;;;;6.97;6.57;;;12.90;99.90;;;;;;4934423;29;20537;-83
2023/10/05 05:12:16;;;;;;;7.87;7.27;;;12.90;99.90;;;;;;4935028;29;20528;-83
2023/10/05 05:15:06;;;;;;;7.80;7.33;;;12.90;99.90;;;;;;4935787;29;20473;-81
2023/10/05 05:17:34;;;;;;;7.80;7.40;;;13.00;99.90;;;;;;4936767;29;20500;-82
2023/10/05 05:20:11;;;;;;;7.97;7.40;;;12.90;99.90;;;;;;4934121;29;20462;-81
2023/10/05 05:22:39;;;;;;;7.63;7.23;;;12.90;99.90;;;;;;4931699;29;20454;-83
2023/10/05 05:25:09;;;;;;;7.23;6.83;;;12.90;99.90;;;;;;4930100;29;20995;-81
2023/10/05 05:27:37;;;;;;;7.27;6.87;;;12.90;99.90;;;;;;4924930;29;20482;-80
2023/10/05 05:30:12;;;;;;;7.53;7.13;;;12.90;99.90;;;;;;4929520;29;20469;-80
2023/10/05 05:32:43;;;;;;;7.60;7.30;;;12.90;99.90;;;;;;4936672;29;20864;-81
2023/10/05 05:35:15;;;;;;;8.10;7.70;;;13.00;99.90;;;;;;4935474;29;20573;-80
2023/10/05 05:37:44;;;;;;;7.70;7.30;;;13.00;99.90;;;;;;4937839;29;20512;-84
2023/10/05 05:40:18;;;;;;;6.83;6.53;;;12.90;99.90;;;;;;4938730;29;20477;-81
2023/10/05 05:42:46;;;;;;;6.57;6.37;;;12.90;99.90;;;;;;4937611;29;20528;-81
2023/10/05 05:45:16;;;;;;;7.70;7.23;;;12.90;99.90;;;;;;4936213;29;20887;-82
2023/10/05 05:47:45;;;;;;;7.00;6.67;;;13.00;99.90;;;;;;4934637;29;20568;-81
2023/10/05 05:50:18;;;;;;;7.33;6.83;;;13.00;99.90;;;;;;4937686;29;21010;-82
2023/10/05 05:52:47;;;;;;;7.60;7.10;;;12.90;99.90;;;;;;4937897;29;20823;-80
2023/10/05 05:55:20;;;;;;;7.27;6.90;;;12.90;99.90;;;;;;4934659;29;20477;-81
2023/10/05 05:57:50;;;;;;;7.43;7.10;;;12.90;99.90;;;;;;4930761;29;20499;-81
2023/10/05 06:00:19;;;;;;;7.20;6.90;;;13.00;99.90;;;;;;4936567;29;20449;-83
2023/10/05 06:02:47;;;;;;;7.17;6.87;;;13.00;99.90;;;;;;4936887;29;20484;-81
2023/10/05 06:05:17;;;;;;;6.93;6.63;;;13.00;99.90;;;;;;4935016;29;20457;-82
2023/10/05 06:07:47;;;;;;;7.33;7.13;;;13.00;99.90;;;;;;4937590;29;20593;-82
2023/10/05 06:10:16;;;;;;;7.80;7.33;;;13.00;99.90;;;;;;4936411;29;20477;-80
2023/10/05 06:12:48;;;;;;;7.53;7.13;;;13.00;99.90;;;;;;4936049;29;20449;-80
2023/10/05 06:15:16;;;;;;;7.67;7.00;;;13.10;99.90;;;;;;4933926;29;20457;-82
2023/10/05 06:17:44;;;;;;;7.77;7.37;;;13.10;99.90;;;;;;4935843;29;21077;-81
2023/10/05 06:20:14;;;;;;;8.67;8.07;;;13.10;99.90;;;;;;4936801;29;20481;-80
2023/10/05 06:22:45;;;;;;;7.20;6.80;;;13.00;99.90;;;;;;4937261;29;20480;-83
2023/10/05 06:25:15;;;;;;;7.93;7.53;;;13.10;99.90;;;;;;4933779;29;20561;-83
2023/10/05 06:27:44;;;;;;;7.80;7.20;;;13.20;99.90;;;;;;4938452;29;20568;-80
2023/10/05 06:30:13;;;;;;;8.07;7.63;;;13.20;99.90;;;;;;4937646;29;20522;-83
2023/10/05 06:32:43;;;;;;;8.00;7.60;;;13.20;99.90;;;;;;4930843;29;20461;-80
2023/10/05 06:35:12;;;;;;;7.90;7.50;;;13.30;99.90;;;;;;4933628;29;20663;-80
2023/10/05 06:37:41;;;;;;;8.57;7.97;;;13.40;99.90;;;;;;4936424;29;20476;-82
2023/10/05 06:40:13;;;;;;;9.00;8.40;;;13.40;99.90;;;;;;4934106;29;20533;-81
2023/10/05 06:42:43;;;;;;;9.23;8.43;;;13.50;99.90;;;;;;4933250;29;21213;-83
2023/10/05 06:45:14;;;;;;;10.63;7.80;;;13.60;99.90;;;;;;4926406;29;20917;-79
2023/10/05 06:47:43;;;;;;;9.67;8.80;;;13.60;99.90;;;;;;4934301;29;20565;-82
2023/10/05 06:50:11;;;;;;;8.50;8.10;;;13.60;99.90;;;;;;4932021;29;20569;-81
2023/10/05 06:52:43;;;;;;;9.87;8.80;;;13.50;99.90;;;;;;4931761;29;20457;-81
2023/10/05 06:55:14;;;;;;;8.73;8.23;;;13.60;99.90;;;;;;4933693;29;20472;-81
2023/10/05 06:57:43;;;;;;;9.10;8.40;;;13.70;99.90;;;;;;4928678;29;20468;-81
2023/10/05 07:00:16;;;;;;;9.87;9.10;;;13.70;99.90;;;;;;4931683;29;20972;-80
2023/10/05 07:02:45;;;;;;;9.20;8.60;;;13.60;99.90;;;;;;4926464;29;20465;-80
2023/10/05 07:05:14;;;;;;;9.40;8.70;;;13.60;99.90;;;;;;4922805;29;20535;-79
2023/10/05 07:07:43;;;;;;;9.67;8.30;;;13.30;99.90;;;;;;4931353;29;20241;-83
2023/10/05 07:10:14;;;;;;;9.67;9.07;;;13.60;99.90;;;;;;4924959;29;20833;-82
2023/10/05 07:12:46;;;;;;;9.40;8.70;;;13.80;99.90;;;;;;4927152;29;21364;-82
2023/10/05 07:15:14;;;;;;;9.80;9.10;;;13.70;99.90;;;;;;4924952;29;21015;-79
2023/10/05 07:17:43;;;;;;;8.73;8.10;;;13.70;99.90;;;;;;4931994;29;20565;-80
2023/10/05 07:20:12;;;;;;;9.03;8.53;;;13.70;99.90;;;;;;4929969;29;20492;-80
2023/10/05 07:22:41;;;;;;;9.47;8.77;;;13.80;99.90;;;;;;4927724;29;20524;-79
2023/10/05 07:25:10;;;;;;;8.70;8.10;;;13.80;99.90;;;;;;4926136;29;20462;-79
2023/10/05 07:27:41;;;;;;;8.47;8.07;;;13.90;99.90;;;;;;4925060;29;20477;-79
2023/10/05 07:30:14;;;;;;;9.30;8.57;;;14.00;99.90;;;;;;4931511;29;20457;-80
2023/10/05 07:32:42;;;;;;;10.97;8.63;;;13.90;99.90;;;;;;4930308;29;20459;-82
2023/10/05 07:35:13;;;;;;;10.17;9.57;;;14.00;99.90;;;;;;4929172;29;20454;-82
2023/10/05 07:37:41;;;;;;;8.63;8.20;;;14.00;99.90;;;;;;4927743;29;20505;-79
2023/10/05 07:40:13;;;;;;;9.43;8.90;;;14.10;99.90;;;;;;4931176;29;20521;-84
2023/10/05 07:42:43;;;;;;;10.10;9.43;;;14.10;99.90;;;;;;4931135;29;20477;-83
2023/10/05 07:45:13;;;;;;;9.20;8.60;;;14.20;99.90;;;;;;4927953;29;21098;-78
2023/10/05 07:47:42;;;;;;;9.83;9.30;;;14.30;99.90;;;;;;4928694;29;20458;-81
2023/10/05 07:50:11;;;;;;;9.60;8.90;;;14.40;99.90;;;;;;4923393;29;20477;-80
2023/10/05 07:52:40;;;;;;;9.40;8.70;;;14.40;99.90;;;;;;4927194;29;20540;-84
2023/10/05 07:55:09;;;;;;;10.07;9.33;;;14.40;99.90;;;;;;4932752;29;20464;-80
2023/10/05 07:57:37;;;;;;;10.13;9.10;;;14.50;99.90;;;;;;4929029;29;20492;-82
2023/10/05 08:00:11;;;;;;;8.97;8.50;;;14.60;99.90;;;;;;4929418;29;20461;-83
2023/10/05 08:02:41;;;;;;;9.60;8.90;;;14.70;99.90;;;;;;4930424;29;20454;-81
2023/10/05 08:05:11;;;;;;;9.70;9.20;;;14.70;99.90;;;;;;4922932;29;20457;-82
2023/10/05 08:07:41;;;;;;;9.97;9.57;;;14.70;99.90;;;;;;4925684;29;20485;-82
2023/10/05 08:10:15;;;;;;;10.87;10.10;;;14.80;99.90;;;;;;4925780;29;20457;-81
2023/10/05 08:33:20;;;;;;;9.90;9.40;;;15.40;99.90;;;;;;4890033;29;20993;-81
2023/10/05 08:35:49;;;;;;;10.63;10.07;;;15.50;99.90;;;;;;4890571;29;20526;-81
2023/10/05 08:38:17;;;;;;;9.53;8.90;;;15.60;99.90;;;;;;4889159;29;20483;-81
2023/10/05 08:40:48;;;;;;;10.00;9.37;;;15.80;99.90;;;;;;4893068;29;20493;-81
2023/10/05 08:43:17;;;;;;;9.90;9.40;;;16.00;99.90;;;;;;4888840;29;20466;-80
2023/10/05 08:45:50;;;;;;;9.83;9.30;;;16.20;99.90;;;;;;4889366;29;20467;-81
2023/10/05 08:48:34;;;;;;;10.47;9.77;;;16.40;99.90;;;;;;4894917;29;20481;-81
2023/10/05 08:51:09;;;;;;;10.27;9.67;;;16.80;99.90;;;;;;4889360;29;20530;-80
2023/10/05 08:53:41;;;;;;;10.50;10.10;;;17.30;99.90;;;;;;4888906;29;21145;-81
2023/10/05 08:56:13;;;;;;;11.23;10.33;;;17.60;99.90;;;;;;4894883;29;20470;-82
2023/10/05 08:58:44;;;;;;;11.07;10.43;;;17.70;99.90;;;;;;4892616;29;20523;-82
2023/10/05 09:01:29;;;;;;;11.20;10.50;;;17.80;99.90;;;;;;4891146;29;20443;-82
2023/10/05 09:04:11;;;;;;;11.47;10.57;;;18.20;99.90;;;;;;4894439;29;20462;-80
2023/10/05 09:06:47;;;;;;;10.43;9.83;;;18.70;99.90;;;;;;4896584;29;20482;-80
2023/10/05 09:09:17;;;;;;;11.40;10.80;;;19.30;99.90;;;;;;4894935;29;20463;-82
2023/10/05 09:11:45;;;;;;;10.97;10.27;;;19.50;99.90;;;;;;4896472;29;20489;-81
2023/10/05 09:14:23;;;;;;;11.13;10.23;;;19.70;99.90;;;;;;4894363;29;20491;-82
2023/10/05 09:16:55;;;;;;;11.63;10.67;;;19.60;99.90;;;;;;4896697;29;20466;-83
2023/10/05 09:19:33;;;;;;;10.60;10.00;;;19.70;99.90;;;;;;4895942;29;21036;-81
2023/10/05 09:22:12;;;;;;;11.70;10.80;;;19.70;99.90;;;;;;4895286;29;20542;-81
2023/10/05 09:24:52;;;;;;;11.07;10.37;;;19.40;99.90;;;;;;4893792;29;21172;-81
2023/10/05 09:27:21;;;;;;;10.93;10.33;;;19.20;99.90;;;;;;4896115;29;20490;-82
2023/10/05 09:29:52;;;;;;;10.30;9.70;;;19.10;99.90;;;;;;4896320;29;20453;-80
2023/10/05 09:32:25;;;;;;;11.70;10.63;;;19.00;99.90;;;;;;4895921;29;20674;-80
2023/10/05 09:34:57;;;;;;;11.00;10.20;;;18.80;99.90;;;;;;4895374;29;20450;-80
2023/10/05 09:37:28;;;;;;;10.80;9.90;;;18.70;99.90;;;;;;4894248;29;20538;-79
2023/10/05 09:39:59;;;;;;;11.27;10.37;;;18.90;99.90;;;;;;4892660;29;20463;-81
2023/10/05 09:42:28;;;;;;;10.97;10.17;;;19.10;99.90;;;;;;4892330;29;20451;-81
2023/10/05 09:44:58;;;;;;;11.30;10.60;;;19.30;99.90;;;;;;4894028;29;20548;-82
2023/10/05 09:47:29;;;;;;;12.07;11.30;;;19.20;99.90;;;;;;4895539;29;20462;-81
2023/10/05 09:50:00;;;;;;;11.60;10.67;;;19.20;99.90;;;;;;4895164;29;20466;-80
2023/10/05 09:52:34;;;;;;;11.33;10.67;;;19.30;99.90;;;;;;4893860;29;20565;-81
2023/10/05 09:55:04;;;;;;;13.00;11.30;;;19.40;99.90;;;;;;4892232;29;20525;-80
2023/10/05 09:57:40;;;;;;;11.00;10.30;;;19.40;99.90;;;;;;4891652;29;20498;-80
2023/10/05 10:00:27;;;;;;;10.80;9.80;;;19.50;99.90;;;;;;4893977;29;20462;-81
2023/10/05 10:02:58;;;;;;;11.70;10.50;;;19.60;99.90;;;;;;4894491;29;20458;-81
2023/10/05 10:05:38;;;;;;;10.70;9.80;;;19.70;99.90;;;;;;4893841;29;20534;-82
2023/10/05 10:08:25;;;;;;;10.67;9.77;;;19.70;99.90;;;;;;4900346;23;20499;-82
2023/10/05 10:11:04;;;;;;;11.50;10.23;;;19.80;99.90;;;;;;4892902;29;20447;-80
2023/10/05 10:13:37;;;;;;;10.17;9.47;;;20.00;99.90;;;;;;4888917;29;20532;-82
2023/10/05 10:16:17;;;;;;;10.23;9.30;;;20.20;99.90;;;;;;4890646;29;20458;-81
2023/10/05 10:18:46;;;;;;;10.30;9.50;;;20.30;99.90;;;;;;4894630;29;20459;-81
2023/10/05 10:21:25;;;;;;;10.17;9.43;;;20.50;99.90;;;;;;4895095;29;20543;-80
2023/10/05 10:24:03;;;;;;;10.40;9.33;;;20.50;99.90;;;;;;4891264;29;20514;-80
2023/10/05 10:26:32;;;;;;;10.63;9.80;;;20.60;99.90;;;;;;4890005;29;20527;-80
2023/10/05 10:29:05;;;;;;;10.00;9.30;;;20.60;99.90;;;;;;4890798;29;20491;-82
2023/10/05 10:31:43;;;;;;;14.97;10.00;;;20.80;99.90;;;;;;4895533;29;20841;-82
2023/10/05 10:34:18;;;;;;;9.83;8.97;;;20.80;99.90;;;;;;4894850;29;20806;-81
2023/10/05 10:36:52;;;;;;;9.40;8.70;;;20.80;99.90;;;;;;4894256;29;20475;-82
2023/10/05 10:39:24;;;;;;;10.30;9.37;;;21.00;99.90;;;;;;4892735;29;20458;-81
2023/10/05 10:42:01;;;;;;;9.67;8.70;;;21.00;99.90;;;;;;4894166;29;20466;-81
2023/10/05 10:44:41;;;;;;;9.10;8.53;;;21.00;99.90;;;;;;4889476;29;20973;-82
2023/10/05 10:47:11;;;;;;;9.17;8.47;;;21.00;99.90;;;;;;4887207;29;20502;-82
2023/10/05 10:49:40;;;;;;;8.53;8.03;;;20.80;99.90;;;;;;4889903;29;21021;-82
2023/10/05 10:52:11;;;;;;;8.80;8.20;;;20.80;99.90;;;;;;4889424;29;21143;-84
2023/10/05 10:54:53;;;;;;;9.47;8.50;;;20.80;99.90;;;;;;4887829;29;20554;-79
2023/10/05 10:57:23;;;;;;;9.27;8.50;;;20.90;99.90;;;;;;4891207;29;20482;-84
2023/10/05 11:00:03;;;;;;;8.57;8.07;;;20.90;99.90;;;;;;4889767;29;20463;-82
2023/10/05 11:02:38;;;;;;;9.30;8.60;;;20.90;99.90;;;;;;4893286;29;20465;-80
2023/10/05 11:05:15;;;;;;;8.63;8.03;;;20.70;99.90;;;;;;4889167;29;20459;-81
2023/10/05 11:07:45;;;;;;;9.40;8.67;;;20.60;99.90;;;;;;4886822;29;20484;-82
2023/10/05 11:10:19;;;;;;;9.23;8.40;;;20.60;99.90;;;;;;4890797;29;20519;-82
2023/10/05 11:12:54;;;;;;;8.63;8.03;;;20.50;99.90;;;;;;4890608;29;20558;-81
2023/10/05 11:15:30;;;;;;;9.70;8.83;;;20.40;99.90;;;;;;4890400;29;20458;-78
2023/10/05 11:17:59;;;;;;;10.60;9.60;;;20.30;99.90;;;;;;4889768;29;20494;-84
2023/10/05 11:20:33;;;;;;;9.23;8.53;;;20.10;99.90;;;;;;4891853;29;20455;-81
2023/10/05 11:23:09;;;;;;;9.80;9.10;;;20.10;99.90;;;;;;4889351;29;20460;-81
2023/10/05 11:25:44;;;;;;;9.93;9.13;;;20.00;99.90;;;;;;4891045;29;20454;-81
2023/10/05 11:28:25;;;;;;;9.40;8.70;;;19.90;99.90;;;;;;4888605;29;20487;-82
2023/10/05 11:30:55;;;;;;;10.00;9.20;;;19.90;99.90;;;;;;4891827;29;20463;-84
2023/10/05 11:33:42;;;;;;;8.90;8.40;;;19.80;99.90;;;;;;4891871;29;20487;-82
2023/10/05 11:36:33;;;;;;;9.87;8.97;;;19.80;99.90;;;;;;4895475;29;21016;-82
2023/10/05 11:39:04;;;;;;;10.00;9.10;;;19.70;99.90;;;;;;4893393;29;20514;-80
2023/10/05 11:41:33;;;;;;;9.23;8.70;;;19.70;99.90;;;;;;4892203;29;20459;-81
2023/10/05 11:44:01;;;;;;;9.70;9.00;;;19.70;99.90;;;;;;4890713;29;20546;-81
2023/10/05 11:46:43;;;;;;;9.57;8.87;;;19.60;99.90;;;;;;4893018;29;20474;-79
2023/10/05 11:49:13;;;;;;;8.63;7.93;;;19.50;99.90;;;;;;4894396;29;20455;-81
2023/10/05 11:51:44;;;;;;;8.63;7.93;;;19.50;99.90;;;;;;4899936;29;20463;-80
2023/10/05 11:54:15;;;;;;;9.07;8.27;;;19.50;99.90;;;;;;4897127;29;20489;-83
2023/10/05 11:56:43;;;;;;;9.30;8.57;;;19.50;99.90;;;;;;4894603;29;21060;-78
2023/10/05 11:59:12;;;;;;;8.37;7.60;;;19.40;99.90;;;;;;4888994;29;20466;-84
2023/10/05 12:01:40;;;;;;;8.93;8.23;;;19.40;99.90;;;;;;4885739;29;20459;-79
2023/10/05 12:04:09;;;;;;;12.07;10.80;;;19.50;99.90;;;;;;4882632;29;20463;-79
2023/10/05 12:06:40;;;;;;;10.47;9.47;;;19.60;99.90;;;;;;4885488;29;20554;-79
2023/10/05 12:09:09;;;;;;;9.27;8.57;;;19.80;99.90;;;;;;4888987;29;20969;-79
2023/10/05 12:11:41;;;;;;;8.67;7.83;;;19.90;99.90;;;;;;4889009;29;20455;-79
2023/10/05 12:14:09;;;;;;;8.83;8.00;;;20.00;99.90;;;;;;4883863;29;20475;-79
2023/10/05 12:16:38;;;;;;;8.37;7.60;;;20.00;99.90;;;;;;4888928;29;21067;-78
2023/10/05 12:19:14;;;;;;;8.30;7.70;;;20.00;99.90;;;;;;4887741;29;20774;-79
2023/10/05 12:21:44;;;;;;;8.20;7.60;;;19.90;99.90;;;;;;4887329;29;21055;-79
2023/10/05 12:24:13;;;;;;;9.30;8.50;;;19.90;99.90;;;;;;4886387;29;21045;-79
2023/10/05 12:26:42;;;;;;;8.40;7.57;;;19.90;99.90;;;;;;4888731;29;20551;-77
2023/10/05 12:29:13;;;;;;;8.13;7.53;;;19.90;99.90;;;;;;4887478;29;20462;-79
2023/10/05 12:31:42;;;;;;;8.23;7.70;;;19.90;99.90;;;;;;4879441;29;20478;-79
2023/10/05 12:34:14;;;;;;;9.07;8.47;;;20.00;99.90;;;;;;4887414;29;21000;-79
2023/10/05 12:36:56;;;;;;;7.80;7.30;;;20.00;99.90;;;;;;4889031;29;20487;-78
2023/10/05 12:39:27;;;;;;;8.60;8.10;;;19.90;99.90;;;;;;4883736;29;21050;-79
2023/10/05 12:41:57;;;;;;;8.33;7.60;;;19.90;99.90;;;;;;4888160;29;20459;-78
2023/10/05 12:44:25;;;;;;;8.63;7.57;;;19.90;99.90;;;;;;4884781;29;20463;-78
2023/10/05 12:46:54;;;;;;;8.53;7.87;;;19.80;99.90;;;;;;4892134;29;20475;-78
2023/10/05 12:49:22;;;;;;;8.03;7.40;;;19.70;99.90;;;;;;4888843;29;20554;-78
2023/10/05 12:51:52;;;;;;;8.57;7.70;;;19.60;99.90;;;;;;4886890;29;20566;-79
2023/10/05 12:54:28;;;;;;;8.27;7.53;;;19.50;99.90;;;;;;4879533;29;20534;-79
2023/10/05 12:57:08;;;;;;;7.70;7.17;;;19.50;99.90;;;;;;4884710;29;20482;-78
2023/10/05 12:59:49;;;;;;;8.50;7.60;;;19.40;99.90;;;;;;4883619;29;20459;-79
2023/10/05 13:02:18;;;;;;;8.57;8.07;;;19.40;99.90;;;;;;4887400;29;20463;-79
2023/10/05 13:04:47;;;;;;;8.17;7.70;;;19.40;99.90;;;;;;4885582;29;20447;-79
2023/10/05 13:07:19;;;;;;;8.77;8.07;;;19.20;99.90;;;;;;4886882;29;21016;-78
2023/10/05 13:09:54;;;;;;;8.70;8.10;;;19.20;99.90;;;;;;4884463;29;20477;-82
2023/10/05 13:12:24;;;;;;;8.23;7.53;;;19.10;99.90;;;;;;4885802;29;20491;-82
2023/10/05 13:14:54;;;;;;;7.93;7.37;;;19.00;99.90;;;;;;4887908;29;20480;-81
2023/10/05 13:17:25;;;;;;;9.63;8.63;;;19.00;99.90;;;;;;4888740;29;20562;-82
2023/10/05 13:19:53;;;;;;;8.40;7.80;;;19.00;99.90;;;;;;4889482;29;20459;-80
2023/10/05 13:22:24;;;;;;;8.20;7.70;;;19.00;99.90;;;;;;4888872;29;20538;-82
2023/10/05 13:24:56;;;;;;;9.03;8.30;;;18.90;99.90;;;;;;4885164;29;21172;-80
2023/10/05 13:27:26;;;;;;;8.87;8.17;;;18.90;99.90;;;;;;4886192;29;20482;-81
2023/10/05 13:29:54;;;;;;;9.97;9.13;;;18.90;99.90;;;;;;4889185;29;20443;-82
2023/10/05 13:32:26;;;;;;;8.73;8.17;;;18.90;99.90;;;;;;4888636;29;20463;-82
2023/10/05 13:34:55;;;;;;;8.80;8.13;;;18.80;99.90;;;;;;4890932;29;21004;-80
2023/10/05 13:37:27;;;;;;;10.40;8.30;;;18.90;99.90;;;;;;4888054;29;20487;-80